Rose Hill Gardens, Indiana
Current Conditions -  °F | °C
As of 8:13 AM on Thursday 27 Nov 2014 (Local Time) from KHUF Reporting Station
Haze Haze  
Wind Chill: 15°   Ceiling: 1000
Heat Index: 25°   Visibility: 5mi
Dew Point: 21°   Wind: 10mph
Humidity: 85%   Direction: 300°WNW
Pressure: 30.32"   Gusts: NA
Location:  39.543°N, 87.3153°W
Report Text: KHUF 271313Z 30009KT 5SM BR BKN010 BKN046 OVC090 M04/M06 A3032 RMK AO2 T10391061
Loading
Personal Weather Stations






























Interactive Weather Map New forecast layout! Learn more

10-Day Weather Forecast

Advertisements
Track Severe Weather on mobile